Genco Loire — V7GN8 — position and weather

sailwx.info

Track history (hours):
 
Tides and Currents Weather Stations Pressure Air Temp Water Temp Dewpoint Dewpoint Depression Visibility Wind Speed Wind Dir Waves Ship Positions

Genco Loire

Last reported at 2017-Oct-18 05:53 UTC. Time now 2017-Nov-21 13:32 UTC.
Position S 06°44' E 112°48'.
Warning: this ship's position is 34 days out of date.

Length 190 m; draft 6.2 m.

MMSI: 538002760.

Date/timePositionNaut miles runAvg speedWind from/ knotsBaromVisibWave heightAir tempDewpointWater temp
2017-Oct-18 05:53S 06°44' E 112°48'614.3
2017-Oct-18 05:27S 06°49' E 112°45'510.7
2017-Oct-18 05:00S 06°54' E 112°44'714.4
2017-Oct-18 04:30S 07°01' E 112°41'815.5
2017-Oct-18 03:59S 07°08' E 112°40'2 2.7
2017-Oct-18 03:05S 07°11' E 112°41'0 0.0
2017-Oct-17 14:56S 07°11' E 112°41'0 0.0
2017-Oct-17 14:26S 07°11' E 112°41'0 0.0
2017-Oct-17 08:14S 07°11' E 112°41'0 0.0
2017-Oct-16 10:47S 07°11' E 112°41'0 0.0
2017-Oct-16 08:59S 07°11' E 112°41'0 0.0
2017-Oct-16 00:59S 07°11' E 112°41'0 0.0
2017-Oct-16 00:23S 07°11' E 112°41'0 0.0
2017-Oct-15 23:53S 07°11' E 112°41'0 0.0
2017-Oct-15 23:29S 07°11' E 112°41'0 0.0
2017-Oct-15 22:41S 07°11' E 112°41'0 0.0
2017-Oct-15 15:05S 07°11' E 112°41'0 0.0
2017-Oct-15 14:53S 07°11' E 112°41'2 2.4
2017-Oct-15 13:59S 07°09' E 112°40'4 8.9
2017-Oct-15 13:29S 07°04' E 112°40'611.2
2017-Oct-15 12:57S 06°59' E 112°42'711.6
2017-Oct-15 12:22S 06°52' E 112°44'3 7.1
2017-Oct-15 12:00S 06°50' E 112°46'1 0.0
2017-Oct-14 15:59S 06°50' E 112°46'0 0.6
2017-Oct-14 15:30S 06°50' E 112°46'  
Track history (hours):
 
Tides and Currents Weather Stations Pressure Air Temp Water Temp Dewpoint Dewpoint Depression Visibility Wind Speed Wind Dir Waves Ship Positions

Genco Loire

Last reported at 2017-Oct-18 05:53 UTC. Time now 2017-Nov-21 13:32 UTC.
Position S 06°44' E 112°48'.
Warning: this ship's position is 34 days out of date.

Length 190 m; draft 6.2 m.

MMSI: 538002760.

Date/timePositionNaut miles runAvg speedWind from/ knotsBaromVisibWave heightAir tempDewpointWater temp
2017-Oct-18 05:53S 06°44' E 112°48'614.3
2017-Oct-18 05:27S 06°49' E 112°45'510.7
2017-Oct-18 05:00S 06°54' E 112°44'714.4
2017-Oct-18 04:30S 07°01' E 112°41'815.5
2017-Oct-18 03:59S 07°08' E 112°40'2 2.7
2017-Oct-18 03:05S 07°11' E 112°41'0 0.0
2017-Oct-17 14:56S 07°11' E 112°41'0 0.0
2017-Oct-17 14:26S 07°11' E 112°41'0 0.0
2017-Oct-17 08:14S 07°11' E 112°41'0 0.0
2017-Oct-16 10:47S 07°11' E 112°41'0 0.0
2017-Oct-16 08:59S 07°11' E 112°41'0 0.0
2017-Oct-16 00:59S 07°11' E 112°41'0 0.0
2017-Oct-16 00:23S 07°11' E 112°41'0 0.0
2017-Oct-15 23:53S 07°11' E 112°41'0 0.0
2017-Oct-15 23:29S 07°11' E 112°41'0 0.0
2017-Oct-15 22:41S 07°11' E 112°41'0 0.0
2017-Oct-15 15:05S 07°11' E 112°41'0 0.0
2017-Oct-15 14:53S 07°11' E 112°41'2 2.4
2017-Oct-15 13:59S 07°09' E 112°40'4 8.9
2017-Oct-15 13:29S 07°04' E 112°40'611.2
2017-Oct-15 12:57S 06°59' E 112°42'711.6
2017-Oct-15 12:22S 06°52' E 112°44'3 7.1
2017-Oct-15 12:00S 06°50' E 112°46'1 0.0
2017-Oct-14 15:59S 06°50' E 112°46'0 0.6
2017-Oct-14 15:30S 06°50' E 112°46'  

Dump ship's entire track history